Time;durP1;ratioP1;P1;durP2;ratioP2;P2;SDS_P1;SDS_P2;PMS_P1;PMS_P2;Temp;Humidity;BMP_temperature;BMP_pressure;BME280_temperature;BME280_humidity;BME280_pressure;Samples;Min_cycle;Max_cycle;Signal;HPM_P1;HPM_P2
2023/05/23 00:00:32;;;;;;;;;24.33;22.00;;;;;19.31;59.22;101756.16;6214185;22;66917;-54
2023/05/23 00:02:57;;;;;;;;;25.33;21.67;;;;;19.30;59.23;101757.13;6214164;22;46239;-54
2023/05/23 00:05:23;;;;;;;;;23.33;21.67;;;;;19.38;59.15;101761.97;6213660;22;45319;-54
2023/05/23 00:07:48;;;;;;;;;29.67;20.67;;;;;19.31;59.24;101747.22;6214898;22;45609;-54
2023/05/23 00:10:13;;;;;;;;;26.67;23.67;;;;;19.30;58.93;101749.03;6214337;22;68379;-54
2023/05/23 00:12:41;;;;;;;;;26.67;21.67;;;;;19.26;59.00;101741.28;6213662;22;71265;-54
2023/05/23 00:15:07;;;;;;;;;21.00;19.67;;;;;19.19;59.00;101738.19;6215007;22;45308;-53
2023/05/23 00:17:32;;;;;;;;;23.33;22.33;;;;;19.16;60.19;101751.84;6214729;22;45414;-54
2023/05/23 00:19:58;;;;;;;;;26.33;21.00;;;;;19.13;59.92;101749.41;6214331;22;45534;-54
2023/05/23 00:22:23;;;;;;;;;24.67;22.00;;;;;19.05;59.47;101757.19;6213457;22;72529;-54
2023/05/23 00:24:48;;;;;;;;;24.33;21.67;;;;;19.06;59.62;101758.88;6213392;22;71781;-55
2023/05/23 00:27:14;;;;;;;;;22.67;21.67;;;;;18.97;59.57;101749.63;6187425;22;68490;-54
2023/05/23 00:29:39;;;;;;;;;26.67;23.33;;;;;18.92;60.95;101752.63;6215613;22;45778;-54
2023/05/23 00:32:05;;;;;;;;;23.33;21.33;;;;;18.86;59.72;101750.34;6214950;22;46845;-53
2023/05/23 00:34:30;;;;;;;;;21.67;19.67;;;;;18.81;60.28;101753.38;6213694;22;71746;-54
2023/05/23 00:36:57;;;;;;;;;27.67;24.00;;;;;18.75;60.88;101761.03;6213110;22;65338;-55
2023/05/23 00:39:22;;;;;;;;;32.33;26.67;;;;;18.69;60.66;101756.91;6214933;22;45424;-54
2023/05/23 00:41:49;;;;;;;;;28.00;24.33;;;;;18.59;61.41;101758.50;6214194;22;45598;-54
2023/05/23 00:44:14;;;;;;;;;29.67;25.00;;;;;18.54;60.95;101760.66;6215032;22;45352;-54
2023/05/23 00:46:41;;;;;;;;;29.00;25.33;;;;;18.50;60.89;101758.19;6214397;22;45152;-55
2023/05/23 00:49:06;;;;;;;;;27.00;22.00;;;;;18.52;60.48;101758.94;6215015;22;45488;-54
2023/05/23 00:51:32;;;;;;;;;29.00;25.33;;;;;18.52;60.73;101755.38;6188102;22;47481;-54
2023/05/23 00:54:00;;;;;;;;;29.33;26.33;;;;;18.51;60.57;101756.34;6215002;22;45242;-54
2023/05/23 00:56:25;;;;;;;;;26.33;26.33;;;;;18.49;60.73;101748.38;6187988;22;45354;-54
2023/05/23 00:58:50;;;;;;;;;27.33;24.67;;;;;18.47;61.09;101744.06;6187597;22;45421;-54
2023/05/23 01:01:16;;;;;;;;;27.00;25.67;;;;;18.43;60.51;101748.78;6214357;22;65535;-54
2023/05/23 01:03:44;;;;;;;;;28.00;24.00;;;;;18.39;60.67;101743.72;6187841;22;45424;-54
2023/05/23 01:06:10;;;;;;;;;31.00;27.00;;;;;18.33;62.27;101734.25;6163383;22;45329;-54
2023/05/23 01:08:36;;;;;;;;;29.67;24.00;;;;;18.29;61.91;101741.66;6215110;22;45261;-54
2023/05/23 01:11:11;;;;;;;;;28.00;25.00;;;;;18.32;61.51;101743.28;6214553;22;45345;-54
2023/05/23 01:13:42;;;;;;;;;30.67;28.00;;;;;18.29;61.06;101735.41;6186590;22;45373;-54
2023/05/23 01:16:26;;;;;;;;;30.00;28.33;;;;;18.32;60.99;101740.59;6188016;22;45362;-55
2023/05/23 01:18:57;;;;;;;;;40.67;33.33;;;;;18.33;60.92;101743.16;6187111;22;45276;-54
2023/05/23 01:21:24;;;;;;;;;29.00;27.00;;;;;18.30;61.85;101743.38;6214971;22;45241;-54
2023/05/23 01:24:05;;;;;;;;;27.33;26.67;;;;;18.21;62.07;101744.00;6187430;22;45899;-53
2023/05/23 01:26:50;;;;;;;;;33.67;27.67;;;;;18.20;61.28;101747.66;6188252;22;45681;-54
2023/05/23 01:29:23;;;;;;;;;28.67;26.67;;;;;18.18;62.16;101744.22;6214995;22;45234;-54
2023/05/23 01:31:52;;;;;;;;;36.00;29.00;;;;;18.19;61.60;101752.19;6213444;22;45328;-54
2023/05/23 01:34:18;;;;;;;;;29.67;28.00;;;;;18.17;61.33;101754.13;6214545;22;45305;-54
2023/05/23 01:36:43;;;;;;;;;30.00;27.00;;;;;18.15;62.58;101756.03;6213696;22;57665;-53
2023/05/23 01:39:09;;;;;;;;;35.00;30.00;;;;;18.12;62.59;101756.25;6215222;22;45432;-53
2023/05/23 01:41:34;;;;;;;;;33.33;29.33;;;;;18.10;61.69;101765.41;6188055;22;47157;-53
2023/05/23 01:44:00;;;;;;;;;30.67;27.00;;;;;18.12;61.79;101763.47;6214108;22;45665;-52
2023/05/23 01:46:26;;;;;;;;;37.33;33.33;;;;;18.11;62.46;101764.44;6187131;22;45294;-53
2023/05/23 01:48:53;;;;;;;;;32.67;27.67;;;;;18.09;62.01;101761.84;6187346;22;45294;-53
2023/05/23 01:51:21;;;;;;;;;32.67;31.00;;;;;18.09;62.97;101758.28;6187790;22;46158;-53
2023/05/23 01:53:46;;;;;;;;;34.33;29.33;;;;;18.07;62.84;101761.09;6214196;22;45240;-55
2023/05/23 01:56:12;;;;;;;;;26.00;22.33;;;;;17.99;63.64;101758.03;6213759;22;66919;-55
2023/05/23 01:58:38;;;;;;;;;36.67;30.00;;;;;17.95;63.33;101760.06;6187706;22;45242;-55
2023/05/23 02:01:03;;;;;;;;;31.00;27.33;;;;;17.90;62.75;101756.78;6186272;22;46334;-54
2023/05/23 02:03:28;;;;;;;;;31.33;28.67;;;;;17.87;63.71;101765.06;6212791;22;70632;-55
2023/05/23 02:05:54;;;;;;;;;33.67;31.67;;;;;17.87;63.51;101756.97;6186213;22;66109;-54
2023/05/23 02:08:20;;;;;;;;;25.67;23.33;;;;;17.87;63.60;101756.97;6187019;22;66587;-53
2023/05/23 02:10:45;;;;;;;;;32.33;25.00;;;;;17.86;63.14;101756.13;6214244;22;45520;-54
2023/05/23 02:13:11;;;;;;;;;29.00;26.67;;;;;17.89;62.88;101764.97;6187115;22;69239;-54
2023/05/23 02:15:36;;;;;;;;;24.00;24.00;;;;;17.92;63.28;101762.91;6214094;22;65089;-55
2023/05/23 02:18:02;;;;;;;;;32.33;29.33;;;;;17.95;62.91;101760.06;6211619;22;66957;-54
2023/05/23 02:20:27;;;;;;;;;31.67;29.67;;;;;17.98;63.23;101759.00;6187857;22;46605;-53
2023/05/23 02:22:52;;;;;;;;;23.00;22.67;;;;;17.98;62.79;101756.31;6213227;22;70554;-54
2023/05/23 02:25:18;;;;;;;;;29.33;27.00;;;;;18.05;62.81;101759.47;6215831;22;45472;-54
2023/05/23 02:27:43;;;;;;;;;32.00;30.33;;;;;18.09;62.58;101771.75;6214292;22;45490;-54
2023/05/23 02:30:09;;;;;;;;;24.67;21.33;;;;;18.10;62.66;101770.78;6214673;22;46259;-54
2023/05/23 02:32:36;;;;;;;;;29.00;26.33;;;;;18.00;62.31;101786.66;6213966;22;45331;-54
2023/05/23 02:35:01;;;;;;;;;29.33;24.33;;;;;17.93;62.31;101774.59;6213441;22;45157;-54
2023/05/23 02:37:27;;;;;;;;;29.00;24.33;;;;;17.85;62.54;101773.22;6214601;22;45268;-54
2023/05/23 02:39:52;;;;;;;;;30.67;29.00;;;;;17.82;62.63;101772.56;6213842;22;73199;-54
2023/05/23 02:42:17;;;;;;;;;26.00;23.67;;;;;17.77;62.53;101774.69;6213373;22;69034;-54
2023/05/23 02:44:43;;;;;;;;;31.33;30.00;;;;;17.67;62.75;101769.06;6213559;22;65808;-54
2023/05/23 02:47:08;;;;;;;;;24.00;23.33;;;;;17.60;64.29;101778.47;6214098;22;63579;-53
2023/05/23 02:49:34;;;;;;;;;38.33;32.00;;;;;17.56;64.01;101780.53;6214382;22;46164;-54
2023/05/23 02:51:59;;;;;;;;;29.33;25.00;;;;;17.51;63.58;101783.50;6214584;22;45598;-54
2023/05/23 02:54:24;;;;;;;;;39.00;27.00;;;;;17.46;63.08;101779.38;6212800;22;61098;-54
2023/05/23 02:56:51;;;;;;;;;37.67;30.00;;;;;17.42;64.13;101776.00;6213735;22;45321;-54
2023/05/23 02:59:16;;;;;;;;;33.33;25.00;;;;;17.36;64.64;101790.72;6213907;22;45952;-54
2023/05/23 03:01:42;;;;;;;;;30.00;25.00;;;;;17.34;63.80;101784.56;6214063;22;45302;-53
2023/05/23 03:04:07;;;;;;;;;27.00;26.33;;;;;17.33;64.02;101781.97;6214161;22;59077;-54
2023/05/23 03:06:33;;;;;;;;;26.33;24.33;;;;;17.29;64.37;101789.38;6213969;22;63052;-54
2023/05/23 03:08:59;;;;;;;;;30.00;28.67;;;;;17.26;64.62;101797.63;6212869;22;47018;-54
2023/05/23 03:11:24;;;;;;;;;29.67;26.33;;;;;17.23;64.25;101794.25;6187156;22;45483;-54
2023/05/23 03:13:50;;;;;;;;;33.67;30.33;;;;;17.17;64.65;101790.16;6212382;22;64871;-54
2023/05/23 03:16:15;;;;;;;;;37.00;32.67;;;;;17.15;65.00;101786.69;6214172;22;51048;-54
2023/05/23 03:18:40;;;;;;;;;33.33;30.00;;;;;17.08;64.62;101793.38;6186382;22;46317;-53
2023/05/23 03:21:06;;;;;;;;;36.67;29.67;;;;;17.02;65.63;101787.41;6212607;22;71424;-54
2023/05/23 03:23:31;;;;;;;;;35.33;31.33;;;;;16.98;64.87;101782.34;6215044;22;45154;-53
2023/05/23 03:25:58;;;;;;;;;33.33;28.00;;;;;16.93;65.82;101785.31;6211457;22;67729;-54
2023/05/23 03:28:24;;;;;;;;;30.67;26.67;;;;;16.93;66.01;101805.94;6213647;22;46268;-54
2023/05/23 03:30:49;;;;;;;;;39.00;34.33;;;;;16.82;66.63;101818.19;6213094;22;45581;-54
2023/05/23 03:33:15;;;;;;;;;34.67;28.67;;;;;16.80;65.15;101805.78;6212632;22;45330;-53
2023/05/23 03:35:40;;;;;;;;;35.33;32.00;;;;;16.80;66.39;101808.47;6213805;22;45300;-53
2023/05/23 03:38:06;;;;;;;;;37.00;30.33;;;;;16.77;66.46;101806.00;6214253;22;46445;-52
2023/05/23 03:40:31;;;;;;;;;39.67;34.33;;;;;16.74;65.93;101808.84;6213697;22;45390;-53
2023/05/23 03:43:06;;;;;;;;;30.00;29.00;;;;;16.67;66.26;101801.19;6212541;22;46329;-53
2023/05/23 03:45:32;;;;;;;;;29.00;27.00;;;;;16.64;67.19;101808.53;6213995;22;45334;-54
2023/05/23 03:47:58;;;;;;;;;36.00;31.33;;;;;16.59;67.04;101802.59;6212828;22;67190;-53
2023/05/23 03:50:23;;;;;;;;;34.67;31.67;;;;;16.57;67.52;101807.16;6214007;22;45322;-54
2023/05/23 03:52:49;;;;;;;;;35.33;31.00;;;;;16.57;66.95;101815.22;6212498;22;69527;-54
2023/05/23 03:55:14;;;;;;;;;44.67;32.33;;;;;16.54;66.83;101818.94;6213544;22;56774;-53
2023/05/23 03:57:39;;;;;;;;;34.00;31.00;;;;;16.55;67.91;101820.69;6212812;22;56949;-54
2023/05/23 04:00:10;;;;;;;;;35.67;31.67;;;;;16.55;67.26;101815.31;6212007;22;56176;-53
2023/05/23 04:02:36;;;;;;;;;39.33;33.33;;;;;16.56;67.49;101819.75;6185798;22;45380;-53
2023/05/23 04:05:01;;;;;;;;;42.00;33.67;;;;;16.54;67.82;101813.59;6213223;22;45775;-53
2023/05/23 04:07:27;;;;;;;;;35.67;30.00;;;;;16.51;67.93;101816.47;6213702;22;46489;-53
2023/05/23 04:09:52;;;;;;;;;35.67;32.67;;;;;16.50;68.20;101810.25;6213135;22;45402;-54
2023/05/23 04:12:18;;;;;;;;;32.00;28.67;;;;;16.50;68.81;101815.63;6213314;22;64779;-54
2023/05/23 04:14:43;;;;;;;;;28.00;23.67;;;;;16.48;67.59;101822.03;6214042;22;45304;-53
2023/05/23 04:17:09;;;;;;;;;29.33;27.00;;;;;16.50;68.00;101828.16;6184830;22;72432;-54
2023/05/23 04:19:34;;;;;;;;;33.33;27.67;;;;;16.48;67.64;101824.72;6213468;22;45395;-51
2023/05/23 04:22:00;;;;;;;;;25.33;24.33;;;;;16.48;67.34;101824.72;6213231;22;45356;-54
2023/05/23 04:24:25;;;;;;;;;24.33;20.67;;;;;16.46;67.88;101823.94;6213413;22;48099;-53
2023/05/23 04:26:50;;;;;;;;;27.67;25.67;;;;;16.46;67.56;101830.16;6213557;22;73819;-53
2023/05/23 04:29:16;;;;;;;;;29.33;24.33;;;;;16.49;67.13;101815.69;6214293;22;68067;-53
2023/05/23 04:31:44;;;;;;;;;27.33;23.33;;;;;16.50;66.91;101834.41;6208039;22;45374;-54
2023/05/23 04:34:10;;;;;;;;;29.00;25.00;;;;;16.59;66.85;101832.13;6181856;23;45286;-53
2023/05/23 04:36:36;;;;;;;;;31.00;27.33;;;;;16.63;67.55;101834.53;6184626;23;46980;-54
2023/05/23 04:39:03;;;;;;;;;35.67;27.00;;;;;16.65;67.09;101829.09;6184590;23;45299;-53
2023/05/23 04:41:30;;;;;;;;;27.33;24.33;;;;;16.68;66.66;101834.25;6208421;22;45455;-53
2023/05/23 04:43:57;;;;;;;;;24.67;23.67;;;;;16.69;66.98;101844.06;6184524;22;45407;-53
2023/05/23 04:46:25;;;;;;;;;24.00;23.67;;;;;16.68;67.17;101839.63;6208358;22;45316;-52
2023/05/23 04:48:52;;;;;;;;;26.00;24.67;;;;;16.66;67.21;101845.09;6184288;22;45402;-53
2023/05/23 04:51:17;;;;;;;;;25.33;24.67;;;;;16.64;67.27;101846.16;6182880;22;45396;-53
2023/05/23 04:53:43;;;;;;;;;23.67;20.67;;;;;16.65;67.11;101839.81;6183239;23;64027;-54
2023/05/23 04:56:08;;;;;;;;;25.67;21.33;;;;;16.67;67.60;101841.47;6207927;22;46484;-53
2023/05/23 04:58:34;;;;;;;;;27.33;24.00;;;;;16.72;66.63;101841.19;6184195;23;45359;-53
2023/05/23 05:00:59;;;;;;;;;25.00;22.33;;;;;16.76;66.81;101848.09;6184294;23;50512;-53
2023/05/23 05:03:25;;;;;;;;;19.00;19.00;;;;;16.80;66.70;101841.56;6207273;22;66982;-52
2023/05/23 05:05:50;;;;;;;;;27.33;25.67;;;;;16.82;66.52;101838.81;6184061;22;46148;-53
2023/05/23 05:08:18;;;;;;;;;27.00;22.33;;;;;16.83;66.84;101836.03;6183392;22;45434;-52
2023/05/23 05:10:44;;;;;;;;;27.67;21.33;;;;;16.84;66.69;101845.84;6184110;23;45347;-53
2023/05/23 05:13:09;;;;;;;;;20.00;19.67;;;;;16.82;67.12;101845.03;6184489;22;45323;-53
2023/05/23 05:15:35;;;;;;;;;25.00;20.33;;;;;16.82;67.45;101844.19;6184769;23;45617;-54
2023/05/23 05:18:00;;;;;;;;;28.67;23.33;;;;;16.87;67.35;101850.16;6183215;23;52664;-51
2023/05/23 05:20:25;;;;;;;;;26.67;22.33;;;;;16.87;68.16;101842.09;6184489;23;45340;-54
2023/05/23 05:22:56;;;;;;;;;20.00;19.00;;;;;16.86;67.28;101851.09;6182969;23;45434;-53
2023/05/23 05:25:21;;;;;;;;;21.00;20.67;;;;;16.83;68.03;101852.16;6182780;23;45284;-54
2023/05/23 05:27:47;;;;;;;;;22.33;20.00;;;;;16.83;67.65;101852.16;6184023;23;45283;-53
2023/05/23 05:30:12;;;;;;;;;24.00;22.33;;;;;16.83;68.32;101849.47;6182411;23;65356;-51
2023/05/23 05:32:38;;;;;;;;;20.33;17.33;;;;;16.84;68.05;101843.16;6175078;23;45509;-54
2023/05/23 05:35:04;;;;;;;;;22.00;18.67;;;;;16.84;68.62;101842.25;6151474;23;46734;-53
2023/05/23 05:37:29;;;;;;;;;17.00;15.33;;;;;16.85;68.40;101857.44;6153672;23;45702;-52
2023/05/23 05:39:55;;;;;;;;;18.00;16.00;;;;;16.87;68.04;101861.75;6152961;23;45692;-53
2023/05/23 05:42:21;;;;;;;;;17.00;16.33;;;;;16.90;68.08;101857.16;6154223;23;45372;-53
2023/05/23 05:44:47;;;;;;;;;18.67;17.00;;;;;16.83;69.18;101857.53;6154421;23;45343;-53
2023/05/23 05:47:13;;;;;;;;;25.67;21.00;;;;;16.87;68.05;101859.06;6153938;23;45493;-54
2023/05/23 05:49:38;;;;;;;;;23.33;18.33;;;;;16.89;67.90;101864.34;6154755;23;45368;-52
2023/05/23 05:52:05;;;;;;;;;21.33;16.00;;;;;16.93;68.17;101865.91;6153908;23;61210;-53
2023/05/23 05:54:31;;;;;;;;;19.67;18.33;;;;;16.90;68.77;101867.91;6153508;23;46286;-51
2023/05/23 05:56:56;;;;;;;;;14.00;14.00;;;;;16.91;68.47;101866.97;6152353;23;45262;-53
2023/05/23 05:59:21;;;;;;;;;23.00;18.00;;;;;16.90;67.75;101874.19;6154503;23;45265;-53
2023/05/23 06:01:47;;;;;;;;;18.00;15.67;;;;;16.91;68.04;101875.03;6152655;23;66801;-54
2023/05/23 06:04:13;;;;;;;;;15.33;14.33;;;;;16.88;68.41;101881.41;6154005;23;45290;-53
2023/05/23 06:06:38;;;;;;;;;18.33;15.00;;;;;16.92;68.85;101872.28;6154338;23;45187;-53
2023/05/23 06:09:03;;;;;;;;;23.00;19.67;;;;;16.95;67.34;101871.22;6153759;23;54138;-52
2023/05/23 06:11:29;;;;;;;;;25.00;21.00;;;;;16.93;67.73;101882.03;6153371;23;67305;-51
2023/05/23 06:13:54;;;;;;;;;17.67;17.33;;;;;16.94;67.85;101878.41;6152022;23;64657;-54
2023/05/23 06:16:19;;;;;;;;;24.00;21.67;;;;;16.94;68.00;101875.72;6153364;23;65225;-54
2023/05/23 06:18:45;;;;;;;;;22.00;19.67;;;;;16.95;68.16;101873.91;6153625;23;45408;-50
2023/05/23 06:21:10;;;;;;;;;22.00;21.00;;;;;16.96;67.76;101879.19;6153602;23;45499;-53
2023/05/23 06:23:35;;;;;;;;;23.67;20.00;;;;;16.97;69.02;101880.03;6151797;23;46041;-52
2023/05/23 06:26:01;;;;;;;;;25.00;23.33;;;;;16.97;67.90;101883.63;6150804;23;65907;-53
2023/05/23 06:28:26;;;;;;;;;24.67;24.67;;;;;16.95;68.34;101882.81;6151649;23;58124;-54
2023/05/23 06:30:51;;;;;;;;;27.33;27.33;;;;;16.93;68.61;101882.03;6159528;22;57416;-54
2023/05/23 06:33:17;;;;;;;;;22.67;20.67;;;;;16.94;68.72;101886.47;6161216;22;47232;-54
2023/05/23 06:35:42;;;;;;;;;30.67;24.67;;;;;16.92;68.42;101890.19;6186418;22;45688;-54
2023/05/23 06:38:07;;;;;;;;;29.00;23.67;;;;;16.93;68.90;101883.88;6187211;22;62009;-54
2023/05/23 06:40:33;;;;;;;;;25.00;24.33;;;;;16.94;68.21;101885.63;6215278;22;45257;-52
2023/05/23 06:42:58;;;;;;;;;21.67;20.00;;;;;16.99;68.15;101895.13;6186880;22;69263;-54
2023/05/23 06:45:23;;;;;;;;;26.67;21.67;;;;;17.05;68.04;101901.09;6186743;22;68065;-55
2023/05/23 06:47:49;;;;;;;;;34.33;27.00;;;;;17.08;67.30;101901.78;6212979;22;66254;-54
2023/05/23 06:50:14;;;;;;;;;27.33;25.00;;;;;17.10;67.61;101897.16;6214767;22;45153;-55
2023/05/23 06:52:41;;;;;;;;;27.33;21.67;;;;;17.19;67.32;101896.63;6214094;22;45507;-54
2023/05/23 06:55:07;;;;;;;;;28.33;24.00;;;;;17.29;67.06;101904.13;6215049;22;45241;-53
2023/05/23 06:57:32;;;;;;;;;24.33;21.67;;;;;17.36;66.94;101911.72;6187690;22;45132;-53
2023/05/23 06:59:58;;;;;;;;;16.33;13.00;;;;;17.41;66.57;101916.81;6187887;22;45519;-53
2023/05/23 07:02:23;;;;;;;;;23.33;20.67;;;;;17.36;66.13;101919.78;6187968;22;46308;-53
2023/05/23 07:04:48;;;;;;;;;29.33;26.33;;;;;17.30;66.50;101919.28;6214357;22;45382;-56
2023/05/23 07:07:14;;;;;;;;;19.67;15.67;;;;;17.28;66.91;101919.38;6215192;22;47870;-55
2023/05/23 07:09:39;;;;;;;;;28.33;22.00;;;;;17.26;66.72;101915.94;6187800;22;64145;-55
2023/05/23 07:12:05;;;;;;;;;26.00;18.67;;;;;17.29;66.76;101920.25;6162990;22;46417;-55
2023/05/23 07:14:31;;;;;;;;;29.00;25.00;;;;;17.35;66.65;101918.06;6215072;22;45343;-56
2023/05/23 07:16:56;;;;;;;;;26.33;19.33;;;;;17.40;66.29;101924.97;6214770;22;45281;-55
2023/05/23 07:19:21;;;;;;;;;25.67;20.67;;;;;17.40;65.89;101925.81;6162753;22;45320;-55
2023/05/23 07:21:47;;;;;;;;;25.00;21.33;;;;;17.43;65.95;101930.16;6162689;22;47302;-54
2023/05/23 07:24:12;;;;;;;;;19.67;19.67;;;;;17.44;65.68;101926.50;6214706;22;45247;-53
2023/05/23 07:26:38;;;;;;;;;25.00;22.67;;;;;17.48;65.59;101934.31;6214848;22;45244;-54
2023/05/23 07:29:03;;;;;;;;;24.33;19.33;;;;;17.48;65.49;101933.41;6213406;22;64203;-54
2023/05/23 07:31:28;;;;;;;;;22.33;20.67;;;;;17.52;65.48;101934.97;6161261;22;63422;-53
2023/05/23 07:33:53;;;;;;;;;21.67;19.33;;;;;17.61;65.53;101933.53;6186251;22;61552;-54
2023/05/23 07:36:19;;;;;;;;;21.00;18.00;;;;;17.65;64.73;101940.44;6214340;22;56416;-54
2023/05/23 07:38:44;;;;;;;;;19.67;15.33;;;;;17.69;65.32;101948.25;6161940;22;56091;-53
2023/05/23 07:41:10;;;;;;;;;24.67;21.67;;;;;17.68;64.58;101942.97;6187867;22;45645;-54
2023/05/23 07:43:35;;;;;;;;;18.00;16.00;;;;;17.65;65.31;101952.09;6214797;22;45356;-54
2023/05/23 07:46:00;;;;;;;;;21.67;20.33;;;;;17.71;65.17;101947.28;6186734;22;52267;-54
2023/05/23 07:48:26;;;;;;;;;20.00;19.00;;;;;17.74;64.61;101950.63;6187415;22;48714;-53
2023/05/23 07:50:53;;;;;;;;;22.00;17.67;;;;;17.79;65.28;101951.22;6187173;22;45304;-53
2023/05/23 07:53:20;;;;;;;;;21.00;19.33;;;;;17.88;64.46;101951.63;6188238;22;45200;-53
2023/05/23 07:55:45;;;;;;;;;25.67;18.67;;;;;17.92;64.39;101951.31;6213915;22;45363;-54
2023/05/23 07:58:10;;;;;;;;;17.00;16.67;;;;;17.94;64.46;101956.63;6213176;22;68666;-53
2023/05/23 08:00:36;;;;;;;;;23.67;20.00;;;;;17.91;64.49;101957.66;6161606;22;71174;-53
2023/05/23 08:03:02;;;;;;;;;24.67;19.33;;;;;17.89;64.94;101951.53;6187721;22;49025;-54
2023/05/23 08:05:27;;;;;;;;;19.00;19.00;;;;;17.83;64.83;101960.84;6189210;22;45426;-54
2023/05/23 08:07:53;;;;;;;;;18.00;16.67;;;;;17.89;65.01;101961.44;6188619;22;45436;-55
2023/05/23 08:10:19;;;;;;;;;18.67;18.67;;;;;17.85;64.90;101968.81;6215885;22;45327;-54
2023/05/23 08:12:44;;;;;;;;;22.33;18.33;;;;;17.83;65.28;101963.53;6163139;22;45503;-53
2023/05/23 08:15:10;;;;;;;;;18.00;17.00;;;;;17.80;66.06;101970.94;6189299;22;45778;-54
2023/05/23 08:17:35;;;;;;;;;22.00;22.00;;;;;17.74;66.82;101971.31;6215878;22;45292;-55
2023/05/23 08:20:02;;;;;;;;;17.67;17.67;;;;;17.64;66.38;101963.81;6215264;22;45668;-55
2023/05/23 08:22:27;;;;;;;;;23.00;19.33;;;;;17.63;66.47;101962.06;6189401;22;45296;-55
2023/05/23 08:24:53;;;;;;;;;21.00;21.00;;;;;17.62;67.48;101973.78;6187923;22;53258;-53
2023/05/23 08:27:18;;;;;;;;;28.33;20.33;;;;;17.68;67.49;101961.81;6214701;22;69755;-55
2023/05/23 08:29:43;;;;;;;;;19.67;19.67;;;;;17.69;67.71;101966.19;6187116;22;70959;-56
2023/05/23 08:32:09;;;;;;;;;23.00;21.00;;;;;17.69;66.88;101966.19;6183193;22;57380;-56
2023/05/23 08:34:34;;;;;;;;;17.67;17.00;;;;;17.66;66.89;101972.66;6185707;22;45597;-54
2023/05/23 08:37:00;;;;;;;;;25.00;19.33;;;;;17.72;66.21;101973.22;6183550;23;45735;-55
2023/05/23 08:39:25;;;;;;;;;28.33;23.33;;;;;17.76;66.17;101972.09;6185403;23;46032;-55
2023/05/23 08:41:51;;;;;;;;;23.67;19.33;;;;;17.84;66.06;101977.84;6184847;22;45310;-54
2023/05/23 08:44:16;;;;;;;;;28.67;22.00;;;;;17.91;65.76;101976.50;6207987;22;62781;-55
2023/05/23 08:46:45;;;;;;;;;27.00;24.67;;;;;17.92;65.68;101975.53;6185102;23;45554;-56
2023/05/23 08:49:13;;;;;;;;;25.00;23.67;;;;;18.06;65.30;101973.84;6207860;22;45428;-55
2023/05/23 08:51:41;;;;;;;;;26.33;23.33;;;;;18.13;65.23;101969.78;6182943;23;45242;-55
2023/05/23 08:54:08;;;;;;;;;29.00;26.00;;;;;18.21;64.77;101975.53;6183346;23;45300;-55
2023/05/23 08:56:34;;;;;;;;;27.00;20.67;;;;;18.24;64.74;101969.09;6182656;23;45533;-55
2023/05/23 08:58:59;;;;;;;;;29.33;25.00;;;;;18.26;64.00;101972.56;6184572;23;45531;-55
2023/05/23 09:01:25;;;;;;;;;15.00;14.67;;;;;18.27;64.13;101979.69;6185292;22;45322;-55
2023/05/23 09:03:50;;;;;;;;;26.00;20.67;;;;;18.30;63.97;101972.28;6184994;22;45304;-55
2023/05/23 09:06:17;;;;;;;;;26.67;23.67;;;;;18.39;63.61;101983.41;6183587;23;45338;-55
2023/05/23 09:08:45;;;;;;;;;22.33;20.33;;;;;18.39;63.63;101972.66;6184586;23;46294;-53
2023/05/23 09:11:11;;;;;;;;;21.67;21.00;;;;;18.37;63.11;101985.34;6208020;22;45313;-54
2023/05/23 09:13:38;;;;;;;;;24.00;23.67;;;;;18.32;63.42;101989.19;6208215;22;45380;-53
2023/05/23 09:16:06;;;;;;;;;26.33;22.00;;;;;18.32;63.39;101985.66;6158528;23;45368;-53
2023/05/23 09:18:42;;;;;;;;;26.33;24.33;;;;;18.27;63.89;101985.94;6182833;23;47976;-53
2023/05/23 09:21:09;;;;;;;;;23.33;23.33;;;;;18.29;63.83;101983.13;6182741;23;45390;-53
2023/05/23 09:23:36;;;;;;;;;24.00;22.00;;;;;18.30;63.78;101982.19;6185448;22;45699;-53
2023/05/23 09:26:09;;;;;;;;;28.00;25.00;;;;;18.33;63.52;101993.63;6208235;22;45291;-53
2023/05/23 09:28:36;;;;;;;;;25.00;22.33;;;;;18.41;63.04;101997.63;6183166;23;45465;-54
2023/05/23 09:31:03;;;;;;;;;22.00;19.67;;;;;18.38;63.48;101992.47;6190976;22;45450;-55
2023/05/23 09:33:37;;;;;;;;;29.00;23.67;;;;;18.35;63.43;101994.41;6188622;22;45273;-54
2023/05/23 09:36:04;;;;;;;;;27.33;25.33;;;;;18.37;63.48;101998.81;6162568;22;45416;-54
2023/05/23 09:38:29;;;;;;;;;28.33;25.33;;;;;18.42;63.42;101996.69;6188463;22;45680;-54
2023/05/23 09:40:56;;;;;;;;;31.33;28.33;;;;;18.45;63.26;101996.50;6188128;22;45611;-54
2023/05/23 09:43:22;;;;;;;;;31.00;23.67;;;;;18.52;62.92;101997.81;6189070;22;45270;-54
2023/05/23 09:45:47;;;;;;;;;29.00;24.33;;;;;18.58;62.17;101996.56;6162769;22;45572;-55
2023/05/23 09:48:13;;;;;;;;;24.33;21.33;;;;;18.82;61.98;101991.38;6211814;22;71984;-55
2023/05/23 09:50:38;;;;;;;;;31.00;26.67;;;;;19.10;61.37;102001.22;6215603;22;45300;-54
2023/05/23 09:53:04;;;;;;;;;25.00;23.00;;;;;19.29;60.46;102000.81;6162571;22;45262;-55
2023/05/23 09:55:29;;;;;;;;;24.67;19.67;;;;;19.39;59.55;102000.22;6215628;22;45240;-56
2023/05/23 09:57:57;;;;;;;;;24.00;18.67;;;;;19.46;59.55;101997.00;6214690;22;45931;-54
2023/05/23 10:00:27;;;;;;;;;19.67;18.67;;;;;19.50;59.12;101995.81;6188087;22;45348;-54
2023/05/23 10:03:12;;;;;;;;;26.00;26.00;;;;;19.47;59.16;101996.00;6188118;22;45260;-55
2023/05/23 10:05:48;;;;;;;;;21.00;20.67;;;;;19.46;58.94;101997.00;6188885;22;45273;-55
2023/05/23 10:08:18;;;;;;;;;16.67;16.33;;;;;19.35;59.05;101991.47;6214823;22;46197;-55
2023/05/23 10:10:56;;;;;;;;;18.00;17.00;;;;;19.18;59.53;102009.66;6214289;22;45379;-54
2023/05/23 10:13:28;;;;;;;;;25.67;23.00;;;;;18.99;59.58;102004.66;6215195;22;45613;-55
2023/05/23 10:16:14;;;;;;;;;27.33;27.00;;;;;18.83;59.86;102007.44;6188349;22;45719;-54
2023/05/23 10:18:43;;;;;;;;;20.00;18.33;;;;;18.71;60.48;102013.66;6186546;22;47322;-54
2023/05/23 10:21:11;;;;;;;;;27.33;23.00;;;;;18.57;60.49;102011.00;6188210;22;45276;-54
2023/05/23 10:23:36;;;;;;;;;20.00;19.00;;;;;18.48;61.14;102012.44;6188132;22;45368;-54
2023/05/23 10:26:03;;;;;;;;;25.00;22.00;;;;;18.40;61.08;102006.72;6214590;22;45395;-54
2023/05/23 10:28:29;;;;;;;;;20.67;19.67;;;;;18.39;61.33;102005.81;6188026;22;46314;-54
2023/05/23 10:30:55;;;;;;;;;24.33;22.67;;;;;18.47;61.00;102003.53;6182181;23;45266;-53
2023/05/23 10:33:21;;;;;;;;;23.00;21.33;;;;;18.52;60.73;102005.91;6157523;23;45241;-54
2023/05/23 10:35:55;;;;;;;;;21.33;18.00;;;;;18.65;60.29;101996.03;6184878;22;45559;-54
2023/05/23 10:38:40;;;;;;;;;20.33;17.67;;;;;18.84;60.10;102000.25;6182371;23;48051;-55
2023/05/23 10:41:10;;;;;;;;;16.33;11.00;;;;;18.99;59.12;101999.25;6183338;23;45431;-55
2023/05/23 10:43:49;;;;;;;;;22.00;18.67;;;;;19.15;58.65;102003.59;6208666;22;45447;-55
2023/05/23 10:46:15;;;;;;;;;19.67;17.00;;;;;19.25;57.95;102004.72;6184860;22;45278;-54
2023/05/23 10:48:42;;;;;;;;;17.67;17.67;;;;;19.26;57.58;102000.19;6184143;22;45291;-56
2023/05/23 10:51:09;;;;;;;;;18.33;16.00;;;;;19.47;57.64;101998.69;6182929;23;45386;-55
2023/05/23 10:53:37;;;;;;;;;20.00;18.33;;;;;19.58;56.90;101999.81;6183201;23;45391;-54
2023/05/23 10:56:06;;;;;;;;;18.33;18.33;;;;;19.54;56.41;101999.13;6184184;22;45475;-55
2023/05/23 10:58:33;;;;;;;;;28.00;19.67;;;;;19.44;56.55;101998.94;6208034;22;46419;-55
2023/05/23 11:01:01;;;;;;;;;23.67;19.67;;;;;19.29;56.75;102000.81;6184247;23;45303;-55
2023/05/23 11:03:44;;;;;;;;;25.00;20.00;;;;;19.22;56.98;102007.63;6182559;23;45377;-55
2023/05/23 11:06:37;;;;;;;;;22.00;17.33;;;;;19.23;56.80;101989.59;6184992;23;45624;-55